sensor_id;sensor_type;location;lat;lon;timestamp;pressure;altitude;pressure_sealevel;temperature;humidity
65359;BME280;52491;45.900;6.346;2023-03-31T00:02:24;93598.88;;;22.51;36.86
65359;BME280;52491;45.900;6.346;2023-03-31T00:04:50;93595.19;;;22.52;36.34
65359;BME280;52491;45.900;6.346;2023-03-31T00:07:19;93601.03;;;22.54;36.86
65359;BME280;52491;45.900;6.346;2023-03-31T00:09:49;93594.91;;;22.53;36.66
65359;BME280;52491;45.900;6.346;2023-03-31T00:12:19;93590.69;;;22.52;36.56
65359;BME280;52491;45.900;6.346;2023-03-31T00:14:46;93587.75;;;22.54;36.62
65359;BME280;52491;45.900;6.346;2023-03-31T00:17:11;93585.09;;;22.54;36.61
65359;BME280;52491;45.900;6.346;2023-03-31T00:19:38;93596.50;;;22.54;36.43
65359;BME280;52491;45.900;6.346;2023-03-31T00:22:04;93593.59;;;22.56;36.43
65359;BME280;52491;45.900;6.346;2023-03-31T00:24:31;93586.69;;;22.55;36.45
65359;BME280;52491;45.900;6.346;2023-03-31T00:27:01;93585.63;;;22.56;36.31
65359;BME280;52491;45.900;6.346;2023-03-31T00:29:28;93582.97;;;22.56;36.32
65359;BME280;52491;45.900;6.346;2023-03-31T00:31:53;93584.03;;;22.55;36.21
65359;BME280;52491;45.900;6.346;2023-03-31T00:34:20;93576.06;;;22.55;36.07
65359;BME280;52491;45.900;6.346;2023-03-31T00:36:45;93567.28;;;22.54;36.15
65359;BME280;52491;45.900;6.346;2023-03-31T00:39:16;93575.00;;;22.56;36.08
65359;BME280;52491;45.900;6.346;2023-03-31T00:41:42;93572.59;;;22.54;36.04
65359;BME280;52491;45.900;6.346;2023-03-31T00:44:19;93575.25;;;22.54;36.13
65359;BME280;52491;45.900;6.346;2023-03-31T00:47:06;93578.97;;;22.53;35.86
65359;BME280;52491;45.900;6.346;2023-03-31T00:49:40;93585.38;;;22.52;35.99
65359;BME280;52491;45.900;6.346;2023-03-31T00:54:35;93575.53;;;22.53;35.94
65359;BME280;52491;45.900;6.346;2023-03-31T00:57:03;93566.25;;;22.55;36.01
65359;BME280;52491;45.900;6.346;2023-03-31T00:59:37;93567.28;;;22.54;35.81
65359;BME280;52491;45.900;6.346;2023-03-31T01:02:04;93561.19;;;22.54;35.92
65359;BME280;52491;45.900;6.346;2023-03-31T01:04:34;93558.53;;;22.54;35.69
65359;BME280;52491;45.900;6.346;2023-03-31T01:07:15;93549.50;;;22.55;35.75
65359;BME280;52491;45.900;6.346;2023-03-31T01:09:44;93538.06;;;22.54;35.65
65359;BME280;52491;45.900;6.346;2023-03-31T01:12:12;93551.09;;;22.56;35.66
65359;BME280;52491;45.900;6.346;2023-03-31T01:14:39;93541.25;;;22.56;35.61
65359;BME280;52491;45.900;6.346;2023-03-31T01:17:05;93532.50;;;22.56;35.45
65359;BME280;52491;45.900;6.346;2023-03-31T01:22:40;93533.28;;;22.56;35.50
65359;BME280;52491;45.900;6.346;2023-03-31T01:28:00;93535.94;;;22.56;35.24
65359;BME280;52491;45.900;6.346;2023-03-31T01:42:16;93513.66;;;22.58;35.21
65359;BME280;52491;45.900;6.346;2023-03-31T01:47:34;93518.16;;;22.57;35.15
65359;BME280;52491;45.900;6.346;2023-03-31T01:50:13;93526.13;;;22.57;35.00
65359;BME280;52491;45.900;6.346;2023-03-31T01:55:26;93511.50;;;22.54;35.11
65359;BME280;52491;45.900;6.346;2023-03-31T01:57:59;93506.72;;;22.56;35.20
65359;BME280;52491;45.900;6.346;2023-03-31T02:00:33;93512.03;;;22.56;35.15
65359;BME280;52491;45.900;6.346;2023-03-31T02:03:15;93505.94;;;22.56;35.18
65359;BME280;52491;45.900;6.346;2023-03-31T02:05:49;93499.81;;;22.55;35.05
65359;BME280;52491;45.900;6.346;2023-03-31T02:08:22;93496.09;;;22.56;35.01
65359;BME280;52491;45.900;6.346;2023-03-31T02:10:50;93499.03;;;22.55;35.05
65359;BME280;52491;45.900;6.346;2023-03-31T02:13:17;93494.53;;;22.55;35.09
65359;BME280;52491;45.900;6.346;2023-03-31T02:15:46;93493.72;;;22.55;34.96
65359;BME280;52491;45.900;6.346;2023-03-31T02:18:17;93496.09;;;22.56;34.99
65359;BME280;52491;45.900;6.346;2023-03-31T02:20:47;93483.63;;;22.57;34.94
65359;BME280;52491;45.900;6.346;2023-03-31T02:23:17;93465.00;;;22.57;35.03
65359;BME280;52491;45.900;6.346;2023-03-31T02:25:52;93453.59;;;22.56;34.88
65359;BME280;52491;45.900;6.346;2023-03-31T02:28:21;93446.69;;;22.55;34.87
65359;BME280;52491;45.900;6.346;2023-03-31T02:30:58;93439.53;;;22.56;34.84
65359;BME280;52491;45.900;6.346;2023-03-31T02:33:28;93435.53;;;22.59;34.87
65359;BME280;52491;45.900;6.346;2023-03-31T02:35:53;93422.50;;;22.57;34.89
65359;BME280;52491;45.900;6.346;2023-03-31T02:38:19;93420.69;;;22.58;34.69
65359;BME280;52491;45.900;6.346;2023-03-31T02:40:45;93433.97;;;22.58;34.86
65359;BME280;52491;45.900;6.346;2023-03-31T02:43:10;93427.56;;;22.59;34.63
65359;BME280;52491;45.900;6.346;2023-03-31T02:45:43;93416.94;;;22.59;34.81
65359;BME280;52491;45.900;6.346;2023-03-31T02:48:18;93412.72;;;22.58;34.70
65359;BME280;52491;45.900;6.346;2023-03-31T02:59:03;93380.53;;;22.54;34.79
65359;BME280;52491;45.900;6.346;2023-03-31T03:04:35;93376.00;;;22.54;34.79
65359;BME280;52491;45.900;6.346;2023-03-31T03:07:14;93366.22;;;22.55;34.65
65359;BME280;52491;45.900;6.346;2023-03-31T03:15:05;93376.56;;;22.56;34.78
65359;BME280;52491;45.900;6.346;2023-03-31T03:17:36;93380.28;;;22.55;34.60
65359;BME280;52491;45.900;6.346;2023-03-31T03:20:05;93377.88;;;22.59;34.52
65359;BME280;52491;45.900;6.346;2023-03-31T03:22:38;93364.59;;;22.59;34.56
65359;BME280;52491;45.900;6.346;2023-03-31T03:25:09;93356.63;;;22.59;34.52
65359;BME280;52491;45.900;6.346;2023-03-31T03:27:36;93347.06;;;22.53;34.54
65359;BME280;52491;45.900;6.346;2023-03-31T03:30:08;93344.41;;;22.48;34.95
65359;BME280;52491;45.900;6.346;2023-03-31T03:32:34;93337.50;;;22.47;34.79
65359;BME280;52491;45.900;6.346;2023-03-31T03:35:00;93331.91;;;22.48;34.76
65359;BME280;52491;45.900;6.346;2023-03-31T03:37:26;93319.94;;;22.46;34.69
65359;BME280;52491;45.900;6.346;2023-03-31T03:39:52;93327.66;;;22.47;34.63
65359;BME280;52491;45.900;6.346;2023-03-31T03:42:17;93328.47;;;22.48;34.72
65359;BME280;52491;45.900;6.346;2023-03-31T03:44:43;93331.13;;;22.48;34.45
65359;BME280;52491;45.900;6.346;2023-03-31T03:47:09;93325.56;;;22.49;34.57
65359;BME280;52491;45.900;6.346;2023-03-31T03:49:34;93316.50;;;22.50;34.65
65359;BME280;52491;45.900;6.346;2023-03-31T03:52:00;93309.34;;;22.51;34.68
65359;BME280;52491;45.900;6.346;2023-03-31T03:54:25;93305.88;;;22.50;34.62
65359;BME280;52491;45.900;6.346;2023-03-31T03:56:51;93304.81;;;22.51;34.59
65359;BME280;52491;45.900;6.346;2023-03-31T03:59:17;93305.63;;;22.52;34.57
65359;BME280;52491;45.900;6.346;2023-03-31T04:01:42;93332.19;;;22.52;34.45
65359;BME280;52491;45.900;6.346;2023-03-31T04:04:08;93322.63;;;22.51;34.65
65359;BME280;52491;45.900;6.346;2023-03-31T04:06:33;93334.03;;;22.51;34.85
65359;BME280;52491;45.900;6.346;2023-03-31T04:08:59;93340.97;;;22.52;34.70
65359;BME280;52491;45.900;6.346;2023-03-31T04:11:25;93331.38;;;22.51;34.59
65359;BME280;52491;45.900;6.346;2023-03-31T04:13:50;93330.34;;;22.52;34.53
65359;BME280;52491;45.900;6.346;2023-03-31T04:16:16;93325.03;;;22.52;34.60
65359;BME280;52491;45.900;6.346;2023-03-31T04:18:42;93315.97;;;22.53;34.44
65359;BME280;52491;45.900;6.346;2023-03-31T04:21:09;93300.03;;;22.53;34.35
65359;BME280;52491;45.900;6.346;2023-03-31T04:23:38;93300.84;;;22.54;34.61
65359;BME280;52491;45.900;6.346;2023-03-31T04:26:12;93293.16;;;22.52;34.53
65359;BME280;52491;45.900;6.346;2023-03-31T04:28:40;93308.81;;;22.54;34.78
65359;BME280;52491;45.900;6.346;2023-03-31T04:31:15;93322.38;;;22.52;34.45
65359;BME280;52491;45.900;6.346;2023-03-31T04:33:50;93311.47;;;22.54;34.62
65359;BME280;52491;45.900;6.346;2023-03-31T04:36:16;93305.09;;;22.55;34.65
65359;BME280;52491;45.900;6.346;2023-03-31T04:38:46;93294.47;;;22.55;34.59
65359;BME280;52491;45.900;6.346;2023-03-31T04:41:15;93296.31;;;22.54;35.02
65359;BME280;52491;45.900;6.346;2023-03-31T04:43:41;93320.22;;;22.54;34.79
65359;BME280;52491;45.900;6.346;2023-03-31T04:46:07;93329.81;;;22.55;34.54
65359;BME280;52491;45.900;6.346;2023-03-31T04:48:33;93315.44;;;22.56;34.61
65359;BME280;52491;45.900;6.346;2023-03-31T04:50:59;93313.88;;;22.55;34.64
65359;BME280;52491;45.900;6.346;2023-03-31T04:53:25;93304.81;;;22.56;34.54
65359;BME280;52491;45.900;6.346;2023-03-31T04:55:51;93301.13;;;22.58;34.64
65359;BME280;52491;45.900;6.346;2023-03-31T04:58:16;93310.69;;;22.59;34.62
65359;BME280;52491;45.900;6.346;2023-03-31T05:00:42;93300.84;;;22.59;34.68
65359;BME280;52491;45.900;6.346;2023-03-31T05:03:08;93306.94;;;22.60;34.71
65359;BME280;52491;45.900;6.346;2023-03-31T05:05:34;93308.56;;;22.61;34.79
65359;BME280;52491;45.900;6.346;2023-03-31T05:08:00;93324.50;;;22.61;34.76
65359;BME280;52491;45.900;6.346;2023-03-31T05:10:26;93310.41;;;22.60;34.94
65359;BME280;52491;45.900;6.346;2023-03-31T05:12:52;93298.19;;;22.59;35.05
65359;BME280;52491;45.900;6.346;2023-03-31T05:15:18;93298.97;;;22.60;35.06
65359;BME280;52491;45.900;6.346;2023-03-31T05:17:44;93311.47;;;22.59;35.28
65359;BME280;52491;45.900;6.346;2023-03-31T05:20:11;93313.06;;;22.60;35.34
65359;BME280;52491;45.900;6.346;2023-03-31T05:22:38;93303.25;;;22.61;35.27
65359;BME280;52491;45.900;6.346;2023-03-31T05:25:06;93280.13;;;22.61;35.31
65359;BME280;52491;45.900;6.346;2023-03-31T05:27:33;93305.63;;;22.62;35.44
65359;BME280;52491;45.900;6.346;2023-03-31T05:30:00;93274.53;;;22.63;35.29
65359;BME280;52491;45.900;6.346;2023-03-31T05:32:26;93279.06;;;22.62;35.25
65359;BME280;52491;45.900;6.346;2023-03-31T05:34:52;93291.31;;;22.63;35.50
65359;BME280;52491;45.900;6.346;2023-03-31T05:37:23;93290.47;;;22.63;35.44
65359;BME280;52491;45.900;6.346;2023-03-31T05:39:51;93274.53;;;22.63;35.47
65359;BME280;52491;45.900;6.346;2023-03-31T05:42:19;93285.44;;;22.61;35.50
65359;BME280;52491;45.900;6.346;2023-03-31T05:44:46;93283.84;;;22.60;35.88
65359;BME280;52491;45.900;6.346;2023-03-31T05:47:13;93293.41;;;22.61;35.79
65359;BME280;52491;45.900;6.346;2023-03-31T05:49:41;93263.91;;;22.63;35.71
65359;BME280;52491;45.900;6.346;2023-03-31T05:52:08;93246.94;;;22.64;35.75
65359;BME280;52491;45.900;6.346;2023-03-31T05:54:33;93256.47;;;22.65;35.60
65359;BME280;52491;45.900;6.346;2023-03-31T05:56:59;93262.88;;;22.64;35.82
65359;BME280;52491;45.900;6.346;2023-03-31T05:59:25;93276.16;;;22.64;35.88
65359;BME280;52491;45.900;6.346;2023-03-31T06:01:50;93273.50;;;22.64;35.98
65359;BME280;52491;45.900;6.346;2023-03-31T06:04:16;93249.59;;;22.64;35.90
65359;BME280;52491;45.900;6.346;2023-03-31T06:06:42;93281.97;;;22.66;35.60
65359;BME280;52491;45.900;6.346;2023-03-31T06:09:09;93278.28;;;22.67;35.75
65359;BME280;52491;45.900;6.346;2023-03-31T06:11:37;93268.69;;;22.66;35.94
65359;BME280;52491;45.900;6.346;2023-03-31T06:14:04;93263.38;;;22.66;35.93
65359;BME280;52491;45.900;6.346;2023-03-31T06:16:30;93282.78;;;22.66;35.93
65359;BME280;52491;45.900;6.346;2023-03-31T06:18:55;93286.25;;;22.67;35.87
65359;BME280;52491;45.900;6.346;2023-03-31T06:21:21;93240.28;;;22.66;36.05
65359;BME280;52491;45.900;6.346;2023-03-31T06:23:47;93257.81;;;22.67;35.93
65359;BME280;52491;45.900;6.346;2023-03-31T06:26:17;93253.28;;;22.68;35.91
65359;BME280;52491;45.900;6.346;2023-03-31T06:28:44;93240.78;;;22.68;35.87
65359;BME280;52491;45.900;6.346;2023-03-31T06:31:16;93264.72;;;22.68;35.77
65359;BME280;52491;45.900;6.346;2023-03-31T06:33:42;93258.59;;;22.68;35.77
65359;BME280;52491;45.900;6.346;2023-03-31T06:36:10;93261.25;;;22.68;35.81
65359;BME280;52491;45.900;6.346;2023-03-31T06:38:37;93260.22;;;22.69;35.94
65359;BME280;52491;45.900;6.346;2023-03-31T06:41:03;93262.06;;;22.68;35.92
65359;BME280;52491;45.900;6.346;2023-03-31T06:43:30;93244.53;;;22.67;35.94
65359;BME280;52491;45.900;6.346;2023-03-31T06:45:55;93250.63;;;22.68;36.03
65359;BME280;52491;45.900;6.346;2023-03-31T06:48:22;93241.63;;;22.69;35.94
65359;BME280;52491;45.900;6.346;2023-03-31T06:50:50;93240.53;;;22.70;36.00
65359;BME280;52491;45.900;6.346;2023-03-31T06:53:16;93218.22;;;22.71;35.91
65359;BME280;52491;45.900;6.346;2023-03-31T06:55:41;93213.97;;;22.70;35.93
65359;BME280;52491;45.900;6.346;2023-03-31T06:58:07;93210.25;;;22.71;35.92
65359;BME280;52491;45.900;6.346;2023-03-31T07:00:33;93210.25;;;22.71;36.01
65359;BME280;52491;45.900;6.346;2023-03-31T07:02:59;93232.56;;;22.70;35.93
65359;BME280;52491;45.900;6.346;2023-03-31T07:05:25;93235.22;;;22.70;35.92
65359;BME280;52491;45.900;6.346;2023-03-31T07:07:54;93223.53;;;22.71;35.96
65359;BME280;52491;45.900;6.346;2023-03-31T07:10:20;93222.72;;;22.70;35.96
65359;BME280;52491;45.900;6.346;2023-03-31T07:12:45;93236.00;;;22.70;35.96
65359;BME280;52491;45.900;6.346;2023-03-31T07:15:11;93269.50;;;22.71;35.99
65359;BME280;52491;45.900;6.346;2023-03-31T07:17:37;93255.69;;;22.69;35.85
65359;BME280;52491;45.900;6.346;2023-03-31T07:20:09;93277.75;;;22.70;35.99
65359;BME280;52491;45.900;6.346;2023-03-31T07:22:39;93292.88;;;22.69;36.05
65359;BME280;52491;45.900;6.346;2023-03-31T07:25:07;93274.00;;;22.71;35.87
65359;BME280;52491;45.900;6.346;2023-03-31T07:27:32;93274.00;;;22.71;36.03
65359;BME280;52491;45.900;6.346;2023-03-31T07:29:58;93280.16;;;22.71;35.83
65359;BME280;52491;45.900;6.346;2023-03-31T07:32:24;93262.59;;;22.70;35.70
65359;BME280;52491;45.900;6.346;2023-03-31T07:34:49;93276.66;;;22.71;35.97
65359;BME280;52491;45.900;6.346;2023-03-31T07:37:15;93266.03;;;22.71;35.90
65359;BME280;52491;45.900;6.346;2023-03-31T07:39:41;93253.81;;;22.70;35.85
65359;BME280;52491;45.900;6.346;2023-03-31T07:42:06;93259.94;;;22.70;35.84
65359;BME280;52491;45.900;6.346;2023-03-31T07:44:35;93262.34;;;22.72;35.84
65359;BME280;52491;45.900;6.346;2023-03-31T07:47:02;93261.78;;;22.70;35.86
65359;BME280;52491;45.900;6.346;2023-03-31T07:49:34;93280.41;;;22.70;36.00
65359;BME280;52491;45.900;6.346;2023-03-31T07:52:00;93262.88;;;22.69;35.94
65359;BME280;52491;45.900;6.346;2023-03-31T07:54:26;93247.72;;;22.69;35.91
65359;BME280;52491;45.900;6.346;2023-03-31T07:56:52;93239.75;;;22.69;35.93
65359;BME280;52491;45.900;6.346;2023-03-31T07:59:18;93237.88;;;22.70;36.00
65359;BME280;52491;45.900;6.346;2023-03-31T08:01:45;93225.66;;;22.69;35.91
65359;BME280;52491;45.900;6.346;2023-03-31T08:04:11;93261.00;;;22.69;35.85
65359;BME280;52491;45.900;6.346;2023-03-31T08:06:38;93320.00;;;22.71;35.87
65359;BME280;52491;45.900;6.346;2023-03-31T08:09:05;93325.31;;;22.71;35.81
65359;BME280;52491;45.900;6.346;2023-03-31T08:11:34;93310.16;;;22.67;36.09
65359;BME280;52491;45.900;6.346;2023-03-31T08:14:01;93329.28;;;22.64;35.94
65359;BME280;52491;45.900;6.346;2023-03-31T08:16:27;93316.78;;;22.64;36.18
65359;BME280;52491;45.900;6.346;2023-03-31T08:18:53;93281.19;;;22.65;35.94
65359;BME280;52491;45.900;6.346;2023-03-31T08:21:20;93265.53;;;22.64;36.06
65359;BME280;52491;45.900;6.346;2023-03-31T08:23:46;93274.28;;;22.64;35.95
65359;BME280;52491;45.900;6.346;2023-03-31T08:26:14;93286.78;;;22.64;36.24
65359;BME280;52491;45.900;6.346;2023-03-31T08:28:43;93283.31;;;22.63;36.02
65359;BME280;52491;45.900;6.346;2023-03-31T08:31:10;93276.41;;;22.62;36.00
65359;BME280;52491;45.900;6.346;2023-03-31T08:33:37;93282.25;;;22.64;35.99
65359;BME280;52491;45.900;6.346;2023-03-31T08:36:04;93291.31;;;22.63;35.99
65359;BME280;52491;45.900;6.346;2023-03-31T08:38:34;93284.13;;;22.64;36.11
65359;BME280;52491;45.900;6.346;2023-03-31T08:41:03;93271.63;;;22.64;35.99
65359;BME280;52491;45.900;6.346;2023-03-31T08:43:40;93278.00;;;22.63;36.11
65359;BME280;52491;45.900;6.346;2023-03-31T08:46:13;93296.63;;;22.63;36.10
65359;BME280;52491;45.900;6.346;2023-03-31T08:48:52;93290.22;;;22.64;36.15
65359;BME280;52491;45.900;6.346;2023-03-31T08:56:45;93298.44;;;22.63;36.11
65359;BME280;52491;45.900;6.346;2023-03-31T08:59:29;93292.09;;;22.64;36.07
65359;BME280;52491;45.900;6.346;2023-03-31T09:01:59;93282.50;;;22.63;35.92
65359;BME280;52491;45.900;6.346;2023-03-31T09:09:38;93269.75;;;22.65;36.09
65359;BME280;52491;45.900;6.346;2023-03-31T09:15:30;93276.41;;;22.62;35.88
65359;BME280;52491;45.900;6.346;2023-03-31T09:18:12;93277.75;;;22.70;35.79
65359;BME280;52491;45.900;6.346;2023-03-31T09:20:46;93251.44;;;22.63;36.05
65359;BME280;52491;45.900;6.346;2023-03-31T09:25:46;93268.97;;;22.64;36.06
65359;BME280;52491;45.900;6.346;2023-03-31T09:28:19;93255.41;;;22.66;36.13
65359;BME280;52491;45.900;6.346;2023-03-31T09:30:47;93265.25;;;22.65;36.18
65359;BME280;52491;45.900;6.346;2023-03-31T09:33:25;93259.13;;;22.65;36.18
65359;BME280;52491;45.900;6.346;2023-03-31T09:36:04;93245.59;;;22.66;36.05
65359;BME280;52491;45.900;6.346;2023-03-31T09:38:33;93246.66;;;22.65;36.11
65359;BME280;52491;45.900;6.346;2023-03-31T09:41:02;93245.06;;;22.64;36.12
65359;BME280;52491;45.900;6.346;2023-03-31T09:43:30;93251.97;;;22.65;36.05
65359;BME280;52491;45.900;6.346;2023-03-31T09:46:00;93245.06;;;22.64;36.38
65359;BME280;52491;45.900;6.346;2023-03-31T09:48:28;93249.31;;;22.65;36.09
65359;BME280;52491;45.900;6.346;2023-03-31T09:50:58;93253.56;;;22.66;35.78
65359;BME280;52491;45.900;6.346;2023-03-31T09:56:01;93244.78;;;22.66;35.64
65359;BME280;52491;45.900;6.346;2023-03-31T09:58:27;93232.31;;;22.66;35.60
65359;BME280;52491;45.900;6.346;2023-03-31T10:01:02;93227.78;;;22.67;35.62
65359;BME280;52491;45.900;6.346;2023-03-31T10:03:29;93244.00;;;22.65;35.66
65359;BME280;52491;45.900;6.346;2023-03-31T10:06:01;93244.00;;;22.65;35.47
65359;BME280;52491;45.900;6.346;2023-03-31T10:08:38;93221.94;;;22.65;35.50
65359;BME280;52491;45.900;6.346;2023-03-31T10:16:13;93203.34;;;22.65;35.47
65359;BME280;52491;45.900;6.346;2023-03-31T10:18:41;93211.31;;;22.65;35.36
65359;BME280;52491;45.900;6.346;2023-03-31T10:21:23;93210.78;;;22.63;35.48
65359;BME280;52491;45.900;6.346;2023-03-31T10:23:50;93231.78;;;22.64;35.21
65359;BME280;52491;45.900;6.346;2023-03-31T10:26:19;93210.53;;;22.64;35.43
65359;BME280;52491;45.900;6.346;2023-03-31T10:28:47;93215.56;;;22.66;35.46
65359;BME280;52491;45.900;6.346;2023-03-31T10:31:15;93201.75;;;22.64;35.24
65359;BME280;52491;45.900;6.346;2023-03-31T10:33:45;93206.00;;;22.65;35.41
65359;BME280;52491;45.900;6.346;2023-03-31T10:36:21;93176.53;;;22.66;35.36
65359;BME280;52491;45.900;6.346;2023-03-31T10:38:51;93187.94;;;22.67;35.53
65359;BME280;52491;45.900;6.346;2023-03-31T10:41:20;93191.63;;;22.66;35.44
65359;BME280;52491;45.900;6.346;2023-03-31T10:43:52;93189.81;;;22.66;35.35
65359;BME280;52491;45.900;6.346;2023-03-31T10:46:18;93173.88;;;22.66;35.36
65359;BME280;52491;45.900;6.346;2023-03-31T10:48:44;93167.22;;;22.69;35.46
65359;BME280;52491;45.900;6.346;2023-03-31T10:51:16;93141.69;;;22.68;35.18
65359;BME280;52491;45.900;6.346;2023-03-31T11:01:42;93106.63;;;22.66;35.38
65359;BME280;52491;45.900;6.346;2023-03-31T11:06:55;93124.16;;;22.67;35.22
65359;BME280;52491;45.900;6.346;2023-03-31T11:09:32;93136.38;;;22.68;35.29
65359;BME280;52491;45.900;6.346;2023-03-31T11:12:20;93139.03;;;22.68;35.24
65359;BME280;52491;45.900;6.346;2023-03-31T11:26:39;93134.03;;;22.56;35.04
65359;BME280;52491;45.900;6.346;2023-03-31T11:43:19;93099.19;;;22.63;35.21
65359;BME280;52491;45.900;6.346;2023-03-31T11:45:57;93101.06;;;22.62;35.53
65359;BME280;52491;45.900;6.346;2023-03-31T11:48:45;93092.03;;;22.63;35.49
65359;BME280;52491;45.900;6.346;2023-03-31T11:51:17;93095.75;;;22.62;35.44
65359;BME280;52491;45.900;6.346;2023-03-31T11:53:45;93078.47;;;22.65;35.61
65359;BME280;52491;45.900;6.346;2023-03-31T11:56:14;93056.44;;;22.64;35.72
65359;BME280;52491;45.900;6.346;2023-03-31T11:58:44;93063.59;;;22.64;35.67
65359;BME280;52491;45.900;6.346;2023-03-31T12:06:30;93030.66;;;22.65;35.83
65359;BME280;52491;45.900;6.346;2023-03-31T12:11:52;93016.84;;;22.63;34.26
65359;BME280;52491;45.900;6.346;2023-03-31T12:16:50;93002.88;;;22.37;33.53
65359;BME280;52491;45.900;6.346;2023-03-31T12:19:44;92991.16;;;22.43;33.55
65359;BME280;52491;45.900;6.346;2023-03-31T12:22:24;93015.22;;;22.72;33.47
65359;BME280;52491;45.900;6.346;2023-03-31T12:24:52;93005.09;;;22.79;33.38
65359;BME280;52491;45.900;6.346;2023-03-31T12:27:31;93002.69;;;22.83;33.26
65359;BME280;52491;45.900;6.346;2023-03-31T12:30:03;92983.53;;;22.86;33.30
65359;BME280;52491;45.900;6.346;2023-03-31T12:32:33;92987.50;;;22.88;33.31
65359;BME280;52491;45.900;6.346;2023-03-31T12:35:06;93015.66;;;22.89;33.29
65359;BME280;52491;45.900;6.346;2023-03-31T12:46:27;92982.69;;;22.95;33.57
65359;BME280;52491;45.900;6.346;2023-03-31T12:57:19;92948.16;;;22.95;33.36
65359;BME280;52491;45.900;6.346;2023-03-31T12:59:46;92927.69;;;22.96;33.25
65359;BME280;52491;45.900;6.346;2023-03-31T13:02:31;92974.47;;;22.97;33.20
65359;BME280;52491;45.900;6.346;2023-03-31T13:04:56;92996.75;;;23.01;33.05
65359;BME280;52491;45.900;6.346;2023-03-31T13:09:58;93048.59;;;23.04;33.07
65359;BME280;52491;45.900;6.346;2023-03-31T13:12:25;93031.06;;;23.03;32.98
65359;BME280;52491;45.900;6.346;2023-03-31T13:14:54;93015.59;;;23.05;32.82
65359;BME280;52491;45.900;6.346;2023-03-31T13:17:32;93022.00;;;23.04;33.16
65359;BME280;52491;45.900;6.346;2023-03-31T13:22:58;93021.47;;;23.01;33.33
65359;BME280;52491;45.900;6.346;2023-03-31T13:27:54;93054.97;;;23.03;32.90
65359;BME280;52491;45.900;6.346;2023-03-31T13:33:22;93069.84;;;23.04;32.84
65359;BME280;52491;45.900;6.346;2023-03-31T13:42:13;93064.78;;;23.02;33.04
65359;BME280;52491;45.900;6.346;2023-03-31T13:56:07;93052.09;;;22.89;33.49
65359;BME280;52491;45.900;6.346;2023-03-31T14:01:52;93031.63;;;22.89;33.75
65359;BME280;52491;45.900;6.346;2023-03-31T14:04:24;93041.97;;;22.91;33.56
65359;BME280;52491;45.900;6.346;2023-03-31T14:06:57;93021.22;;;22.93;33.61
65359;BME280;52491;45.900;6.346;2023-03-31T14:09:39;93007.94;;;22.93;33.54
65359;BME280;52491;45.900;6.346;2023-03-31T14:12:37;93018.03;;;22.91;33.62
65359;BME280;52491;45.900;6.346;2023-03-31T14:15:05;93029.75;;;22.90;33.75
65359;BME280;52491;45.900;6.346;2023-03-31T14:17:39;93010.16;;;22.75;33.85
65359;BME280;52491;45.900;6.346;2023-03-31T14:23:23;93032.69;;;22.88;33.66
65359;BME280;52491;45.900;6.346;2023-03-31T14:31:28;93020.97;;;22.89;33.91
65359;BME280;52491;45.900;6.346;2023-03-31T14:34:26;93001.31;;;22.90;33.79
65359;BME280;52491;45.900;6.346;2023-03-31T14:37:03;93008.28;;;22.76;34.10
65359;BME280;52491;45.900;6.346;2023-03-31T14:39:34;93015.13;;;22.87;33.77
65359;BME280;52491;45.900;6.346;2023-03-31T14:42:13;93010.34;;;22.89;33.90
65359;BME280;52491;45.900;6.346;2023-03-31T14:44:40;92989.09;;;22.89;33.92
65359;BME280;52491;45.900;6.346;2023-03-31T14:47:22;92997.06;;;22.89;33.82
65359;BME280;52491;45.900;6.346;2023-03-31T14:49:58;92990.66;;;22.90;33.93
65359;BME280;52491;45.900;6.346;2023-03-31T14:52:29;92985.66;;;22.89;33.90
65359;BME280;52491;45.900;6.346;2023-03-31T14:54:56;92973.69;;;22.86;34.02
65359;BME280;52491;45.900;6.346;2023-03-31T14:57:29;92970.31;;;22.70;34.32
65359;BME280;52491;45.900;6.346;2023-03-31T14:59:55;92966.63;;;22.66;34.13
65359;BME280;52491;45.900;6.346;2023-03-31T15:02:33;92954.66;;;22.69;34.08
65359;BME280;52491;45.900;6.346;2023-03-31T15:05:03;92953.81;;;22.73;34.06
65359;BME280;52491;45.900;6.346;2023-03-31T15:07:32;92949.03;;;22.75;34.00
65359;BME280;52491;45.900;6.346;2023-03-31T15:09:58;92957.25;;;22.79;34.04
65359;BME280;52491;45.900;6.346;2023-03-31T15:12:24;92960.69;;;22.79;33.66
65359;BME280;52491;45.900;6.346;2023-03-31T15:15:03;92980.13;;;22.80;33.72
65359;BME280;52491;45.900;6.346;2023-03-31T15:17:36;92970.28;;;22.81;33.86
65359;BME280;52491;45.900;6.346;2023-03-31T15:20:39;92959.94;;;22.74;33.82
65359;BME280;52491;45.900;6.346;2023-03-31T15:23:26;92952.19;;;22.83;33.83
65359;BME280;52491;45.900;6.346;2023-03-31T15:26:01;92978.47;;;22.84;33.96
65359;BME280;52491;45.900;6.346;2023-03-31T15:28:32;92980.88;;;22.86;33.91
65359;BME280;52491;45.900;6.346;2023-03-31T15:31:01;92986.19;;;22.86;34.00
65359;BME280;52491;45.900;6.346;2023-03-31T15:33:33;92968.44;;;22.76;33.99
65359;BME280;52491;45.900;6.346;2023-03-31T15:36:01;92981.13;;;22.84;33.91
65359;BME280;52491;45.900;6.346;2023-03-31T15:38:28;92987.53;;;22.83;33.80
65359;BME280;52491;45.900;6.346;2023-03-31T15:40:56;92972.94;;;22.81;33.74
65359;BME280;52491;45.900;6.346;2023-03-31T15:43:30;92975.06;;;22.78;33.61
65359;BME280;52491;45.900;6.346;2023-03-31T15:45:58;92993.13;;;22.76;33.54
65359;BME280;52491;45.900;6.346;2023-03-31T15:48:36;92988.09;;;22.75;33.56
65359;BME280;52491;45.900;6.346;2023-03-31T15:53:43;92969.50;;;22.75;33.53
65359;BME280;52491;45.900;6.346;2023-03-31T15:56:43;92949.31;;;22.74;33.38
65359;BME280;52491;45.900;6.346;2023-03-31T15:59:26;92965.00;;;22.70;33.39
65359;BME280;52491;45.900;6.346;2023-03-31T16:01:53;92969.78;;;22.68;33.28
65359;BME280;52491;45.900;6.346;2023-03-31T16:04:21;92960.25;;;22.67;33.13
65359;BME280;52491;45.900;6.346;2023-03-31T16:06:52;92974.88;;;22.65;33.20
65359;BME280;52491;45.900;6.346;2023-03-31T16:09:27;92975.38;;;22.67;33.25